createdAt,value
2023-04-16T00:00:43.311Z,1000.2
2023-04-16T00:01:59.629Z,1000.3
2023-04-16T00:03:15.903Z,1000.3
2023-04-16T00:04:32.192Z,1000.3
2023-04-16T00:05:48.483Z,1000.3
2023-04-16T00:07:04.779Z,1000.3
2023-04-16T00:08:21.101Z,1000.3
2023-04-16T00:09:37.365Z,1000.4
2023-04-16T00:10:52.676Z,1000.4
2023-04-16T00:12:08.967Z,1000.4
2023-04-16T00:13:25.266Z,1000.4
2023-04-16T00:14:41.555Z,1000.3
2023-04-16T00:15:57.877Z,1000.4
2023-04-16T00:17:14.177Z,1000.4
2023-04-16T00:18:30.478Z,1000.3
2023-04-16T00:19:45.768Z,1000.4
2023-04-16T00:21:01.065Z,1000.4
2023-04-16T00:22:17.395Z,1000.4
2023-04-16T00:23:33.680Z,1000.4
2023-04-16T00:24:49.947Z,1000.4
2023-04-16T00:26:06.271Z,1000.4
2023-04-16T00:27:22.562Z,1000.4
2023-04-16T00:28:38.826Z,1000.4
2023-04-16T00:29:55.134Z,1000.3
2023-04-16T00:31:11.424Z,1000.4
2023-04-16T00:32:27.715Z,1000.4
2023-04-16T00:33:44.007Z,1000.4
2023-04-16T00:35:00.304Z,1000.4
2023-04-16T00:37:32.895Z,1000.4
2023-04-16T00:38:48.198Z,1000.4
2023-04-16T00:40:04.501Z,1000.4
2023-04-16T00:41:20.812Z,1000.4
2023-04-16T00:42:37.112Z,1000.4
2023-04-16T00:43:53.388Z,1000.4
2023-04-16T00:45:09.671Z,1000.4
2023-04-16T00:46:25.966Z,1000.4
2023-04-16T00:47:41.290Z,1000.4
2023-04-16T00:48:56.619Z,1000.4
2023-04-16T00:50:12.884Z,1000.3
2023-04-16T00:51:29.179Z,1000.3
2023-04-16T00:52:45.469Z,1000.3
2023-04-16T00:54:01.793Z,1000.3
2023-04-16T00:55:18.075Z,1000.3
2023-04-16T00:56:34.352Z,1000.3
2023-04-16T00:57:50.643Z,1000.3
2023-04-16T00:59:06.974Z,1000.3
2023-04-16T01:00:23.244Z,1000.4
2023-04-16T01:01:39.554Z,1000.3
2023-04-16T01:02:55.849Z,1000.4
2023-04-16T01:04:12.116Z,1000.4
2023-04-16T01:05:27.454Z,1000.4
2023-04-16T01:06:43.737Z,1000.4
2023-04-16T01:08:00.020Z,1000.4
2023-04-16T01:09:16.315Z,1000.5
2023-04-16T01:10:32.609Z,1000.5
2023-04-16T01:11:48.903Z,1000.5
2023-04-16T01:13:05.192Z,1000.5
2023-04-16T01:14:20.533Z,1000.5
2023-04-16T01:15:35.842Z,1000.5
2023-04-16T01:16:51.148Z,1000.6
2023-04-16T01:18:06.441Z,1000.6
2023-04-16T01:19:21.787Z,1000.6
2023-04-16T01:20:37.072Z,1000.7
2023-04-16T01:21:53.359Z,1000.6
2023-04-16T01:24:25.958Z,1000.6
2023-04-16T01:26:58.552Z,1000.7
2023-04-16T01:28:14.827Z,1000.6
2023-04-16T01:29:31.126Z,1000.7
2023-04-16T01:30:47.449Z,1000.6
2023-04-16T01:32:03.748Z,1000.6
2023-04-16T01:33:20.033Z,1000.8
2023-04-16T01:34:36.304Z,1000.8
2023-04-16T01:35:51.621Z,1000.8
2023-04-16T01:37:06.923Z,1000.8
2023-04-16T01:38:23.231Z,1000.8
2023-04-16T01:39:39.513Z,1000.8
2023-04-16T01:40:55.840Z,1000.8
2023-04-16T01:42:12.109Z,1000.8
2023-04-16T01:43:28.401Z,1000.8
2023-04-16T01:44:44.733Z,1000.8
2023-04-16T01:46:01.016Z,1000.9
2023-04-16T01:47:17.283Z,1000.8
2023-04-16T01:48:33.582Z,1000.9
2023-04-16T01:49:48.895Z,1000.8
2023-04-16T01:51:04.195Z,1000.9
2023-04-16T01:52:20.502Z,1000.8
2023-04-16T01:53:36.787Z,1000.8
2023-04-16T01:54:53.076Z,1000.8
2023-04-16T01:56:09.374Z,1000.9
2023-04-16T01:57:25.677Z,1000.9
2023-04-16T01:58:41.995Z,1000.8
2023-04-16T01:59:58.258Z,1000.8
2023-04-16T02:01:14.560Z,1000.8
2023-04-16T02:02:30.855Z,1000.8
2023-04-16T02:03:47.154Z,1000.8
2023-04-16T02:05:03.436Z,1000.8
2023-04-16T02:06:19.721Z,1000.8
2023-04-16T02:07:35.035Z,1000.8
2023-04-16T02:08:51.334Z,1000.9
2023-04-16T02:10:07.624Z,1000.9
2023-04-16T02:11:23.914Z,1000.9
2023-04-16T02:12:40.208Z,1000.9
2023-04-16T02:13:56.513Z,1000.9
2023-04-16T02:15:12.801Z,1000.9
2023-04-16T02:16:28.115Z,1000.8
2023-04-16T02:17:43.430Z,1000.8
2023-04-16T02:18:59.725Z,1000.8
2023-04-16T02:20:16.022Z,1000.8
2023-04-16T02:21:32.319Z,1000.8
2023-04-16T02:22:48.616Z,1000.9
2023-04-16T02:24:04.913Z,1000.9
2023-04-16T02:25:21.193Z,1000.9
2023-04-16T02:26:37.495Z,1000.9
2023-04-16T02:27:52.814Z,1000.9
2023-04-16T02:29:09.107Z,1000.9
2023-04-16T02:30:25.407Z,1000.9
2023-04-16T02:31:41.676Z,1000.9
2023-04-16T02:32:57.995Z,1000.9
2023-04-16T02:34:14.285Z,1000.9
2023-04-16T02:35:30.570Z,1000.9
2023-04-16T02:36:46.859Z,1001
2023-04-16T02:38:03.168Z,1001
2023-04-16T02:39:19.450Z,1001
2023-04-16T02:40:35.735Z,1001
2023-04-16T02:41:52.039Z,1001
2023-04-16T02:43:07.361Z,1001
2023-04-16T02:44:22.672Z,1001
2023-04-16T02:45:37.988Z,1001
2023-04-16T02:46:53.287Z,1001
2023-04-16T02:48:09.590Z,1001
2023-04-16T02:49:25.884Z,1001
2023-04-16T02:50:42.168Z,1001
2023-04-16T02:51:58.466Z,1001
2023-04-16T02:53:14.769Z,1001
2023-04-16T02:54:31.059Z,1001
2023-04-16T02:55:47.341Z,1001
2023-04-16T02:57:03.657Z,1001
2023-04-16T02:58:19.943Z,1001
2023-04-16T02:59:36.237Z,1001
2023-04-16T03:00:52.519Z,1001
2023-04-16T03:02:08.822Z,1001
2023-04-16T03:03:24.124Z,1001.1
2023-04-16T03:04:40.417Z,1001.1
2023-04-16T03:05:56.730Z,1001
2023-04-16T03:07:13.019Z,1001
2023-04-16T03:08:29.299Z,1001.1
2023-04-16T03:09:45.595Z,1001.1
2023-04-16T03:11:01.908Z,1001.1
2023-04-16T03:12:17.218Z,1001.1
2023-04-16T03:13:32.524Z,1001.1
2023-04-16T03:14:47.853Z,1001.1
2023-04-16T03:16:03.150Z,1001.1
2023-04-16T03:17:19.433Z,1001.1
2023-04-16T03:18:35.722Z,1001.2
2023-04-16T03:19:52.023Z,1001.2
2023-04-16T03:21:08.334Z,1001.2
2023-04-16T03:22:24.616Z,1001.2
2023-04-16T03:23:40.912Z,1001.1
2023-04-16T03:24:57.207Z,1001.1
2023-04-16T03:26:13.500Z,1001.1
2023-04-16T03:27:29.779Z,1001.1
2023-04-16T03:28:46.088Z,1001.2
2023-04-16T03:30:02.380Z,1001.2
2023-04-16T03:31:18.665Z,1001.2
2023-04-16T03:32:33.983Z,1001.2
2023-04-16T03:33:50.267Z,1001.2
2023-04-16T03:35:06.581Z,1001.3
2023-04-16T03:36:22.873Z,1001.2
2023-04-16T03:37:39.155Z,1001.3
2023-04-16T03:38:55.448Z,1001.2
2023-04-16T03:40:11.739Z,1001.3
2023-04-16T03:41:27.051Z,1001.2
2023-04-16T03:42:42.376Z,1001.3
2023-04-16T03:43:58.654Z,1001.3
2023-04-16T03:45:14.967Z,1001.3
2023-04-16T03:46:31.254Z,1001.3
2023-04-16T03:47:47.549Z,1001.3
2023-04-16T03:49:03.856Z,1001.3
2023-04-16T03:50:20.141Z,1001.3
2023-04-16T03:51:36.422Z,1001.3
2023-04-16T03:52:52.663Z,1001.3
2023-04-16T03:54:08.965Z,1001.3
2023-04-16T03:55:25.206Z,1001.3
2023-04-16T03:56:41.454Z,1001.3
2023-04-16T03:57:57.692Z,1001.3
2023-04-16T03:59:12.951Z,1001.3
2023-04-16T04:00:29.191Z,1001.4
2023-04-16T04:01:45.438Z,1001.4
2023-04-16T04:03:01.670Z,1001.4
2023-04-16T04:04:17.917Z,1001.5
2023-04-16T04:05:34.179Z,1001.4
2023-04-16T04:06:50.407Z,1001.5
2023-04-16T04:08:05.656Z,1001.5
2023-04-16T04:09:20.925Z,1001.5
2023-04-16T04:10:37.155Z,1001.5
2023-04-16T04:11:53.415Z,1001.5
2023-04-16T04:13:09.653Z,1001.6
2023-04-16T04:14:25.877Z,1001.6
2023-04-16T04:15:42.109Z,1001.6
2023-04-16T04:16:58.357Z,1001.6
2023-04-16T04:18:14.615Z,1001.6
2023-04-16T04:19:30.832Z,1001.6
2023-04-16T04:20:47.071Z,1001.6
2023-04-16T04:22:03.313Z,1001.6
2023-04-16T04:23:19.554Z,1001.7
2023-04-16T04:24:35.805Z,1001.7
2023-04-16T04:25:51.047Z,1001.7
2023-04-16T04:27:07.287Z,1001.6
2023-04-16T04:28:23.553Z,1001.6
2023-04-16T04:29:39.784Z,1001.7
2023-04-16T04:30:56.041Z,1001.8
2023-04-16T04:32:12.265Z,1001.8
2023-04-16T04:33:28.489Z,1001.7
2023-04-16T04:34:43.766Z,1001.8
2023-04-16T04:37:15.244Z,1001.8
2023-04-16T04:38:30.526Z,1001.8
2023-04-16T04:39:45.783Z,1001.8
2023-04-16T04:41:01.050Z,1001.8
2023-04-16T04:42:16.286Z,1001.8
2023-04-16T04:43:32.541Z,1001.8
2023-04-16T04:44:47.797Z,1001.9
2023-04-16T04:46:03.050Z,1001.9
2023-04-16T04:47:19.283Z,1001.9
2023-04-16T04:48:35.528Z,1001.9
2023-04-16T04:49:51.762Z,1001.9
2023-04-16T04:51:08.000Z,1001.9
2023-04-16T04:52:24.000Z,1002
2023-04-16T04:53:40.504Z,1001.9
2023-04-16T04:54:56.738Z,1002
2023-04-16T04:56:12.958Z,1001.9
2023-04-16T04:57:29.203Z,1002
2023-04-16T04:58:45.445Z,1002
2023-04-16T05:00:01.682Z,1002
2023-04-16T05:01:17.932Z,1002
2023-04-16T05:02:33.200Z,1002
2023-04-16T05:03:49.417Z,1002
2023-04-16T05:05:05.672Z,1002
2023-04-16T05:06:21.921Z,1002
2023-04-16T05:07:38.137Z,1002.1
2023-04-16T05:08:54.394Z,1002
2023-04-16T05:10:10.624Z,1002
2023-04-16T05:11:25.882Z,1002.1
2023-04-16T05:12:41.153Z,1002
2023-04-16T05:13:57.382Z,1002.1
2023-04-16T05:15:13.633Z,1002.1
2023-04-16T05:16:29.862Z,1002.1
2023-04-16T05:17:46.113Z,1002
2023-04-16T05:19:02.353Z,1002.1
2023-04-16T05:20:18.595Z,1002.1
2023-04-16T05:21:34.834Z,1002.1
2023-04-16T05:22:51.064Z,1002.1
2023-04-16T05:24:07.294Z,1002.1
2023-04-16T05:25:23.552Z,1002.1
2023-04-16T05:26:39.780Z,1002.1
2023-04-16T05:27:56.016Z,1002.1
2023-04-16T05:29:11.000Z,1002.2
2023-04-16T05:30:27.517Z,1002.2
2023-04-16T05:31:43.751Z,1002.2
2023-04-16T05:32:59.998Z,1002.2
2023-04-16T05:34:16.243Z,1002.2
2023-04-16T05:35:32.475Z,1002.2
2023-04-16T05:36:48.744Z,1002.2
2023-04-16T05:38:04.968Z,1002.2
2023-04-16T05:39:21.197Z,1002.2
2023-04-16T05:40:36.465Z,1002.3
2023-04-16T05:41:51.732Z,1002.3
2023-04-16T05:43:06.997Z,1002.3
2023-04-16T05:44:22.243Z,1002.2
2023-04-16T05:45:38.470Z,1002.3
2023-04-16T05:46:54.725Z,1002.3
2023-04-16T05:48:10.955Z,1002.3
2023-04-16T05:49:27.197Z,1002.3
2023-04-16T05:50:43.430Z,1002.4
2023-04-16T05:51:59.668Z,1002.3
2023-04-16T05:53:15.930Z,1002.4
2023-04-16T05:54:32.163Z,1002.4
2023-04-16T05:55:48.390Z,1002.4
2023-04-16T05:57:04.634Z,1002.4
2023-04-16T05:58:20.904Z,1002.4
2023-04-16T05:59:37.132Z,1002.4
2023-04-16T06:00:52.382Z,1002.4
2023-04-16T06:02:08.609Z,1002.5
2023-04-16T06:03:24.854Z,1002.5
2023-04-16T06:04:41.099Z,1002.5
2023-04-16T06:05:57.341Z,1002.5
2023-04-16T06:07:13.582Z,1002.5
2023-04-16T06:08:29.818Z,1002.5
2023-04-16T06:09:45.091Z,1002.5
2023-04-16T06:11:00.326Z,1002.5
2023-04-16T06:12:16.567Z,1002.6
2023-04-16T06:13:32.808Z,1002.6
2023-04-16T06:14:49.041Z,1002.6
2023-04-16T06:16:05.280Z,1002.6
2023-04-16T06:17:21.537Z,1002.6
2023-04-16T06:18:37.773Z,1002.6
2023-04-16T06:19:54.028Z,1002.6
2023-04-16T06:21:10.245Z,1002.6
2023-04-16T06:22:26.502Z,1002.6
2023-04-16T06:23:42.726Z,1002.7
2023-04-16T06:24:58.959Z,1002.6
2023-04-16T06:26:15.210Z,1002.6
2023-04-16T06:27:30.481Z,1002.6
2023-04-16T06:28:46.702Z,1002.7
2023-04-16T06:30:02.938Z,1002.7
2023-04-16T06:31:19.208Z,1002.6
2023-04-16T06:32:35.420Z,1002.7
2023-04-16T06:33:51.674Z,1002.7
2023-04-16T06:35:07.898Z,1002.7
2023-04-16T06:36:23.178Z,1002.7
2023-04-16T06:37:38.425Z,1002.7
2023-04-16T06:38:53.690Z,1002.7
2023-04-16T06:40:08.952Z,1002.7
2023-04-16T06:41:24.208Z,1002.8
2023-04-16T06:42:39.464Z,1002.8
2023-04-16T06:43:55.714Z,1002.7
2023-04-16T06:45:11.952Z,1002.8
2023-04-16T06:46:28.194Z,1002.8
2023-04-16T06:47:44.415Z,1002.8
2023-04-16T06:49:00.676Z,1002.8
2023-04-16T06:50:16.906Z,1002.8
2023-04-16T06:51:33.145Z,1002.8
2023-04-16T06:52:49.386Z,1002.9
2023-04-16T06:54:05.635Z,1002.9
2023-04-16T06:55:21.876Z,1002.9
2023-04-16T06:56:38.115Z,1002.9
2023-04-16T06:57:54.341Z,1002.9
2023-04-16T06:59:09.591Z,1002.9
2023-04-16T07:00:25.835Z,1002.9
2023-04-16T07:01:42.087Z,1003
2023-04-16T07:02:58.320Z,1002.9
2023-04-16T07:04:14.565Z,1002.9
2023-04-16T07:05:30.809Z,1002.9
2023-04-16T07:06:47.059Z,1003
2023-04-16T07:08:02.311Z,1003
2023-04-16T07:09:17.566Z,1003
2023-04-16T07:10:32.812Z,1002.9
2023-04-16T07:11:48.071Z,1003
2023-04-16T07:13:04.331Z,1002.9
2023-04-16T07:14:20.564Z,1002.9
2023-04-16T07:15:36.824Z,1003
2023-04-16T07:16:53.046Z,1003
2023-04-16T07:18:09.279Z,1003
2023-04-16T07:19:25.514Z,1003.1
2023-04-16T07:20:41.756Z,1003.1
2023-04-16T07:21:57.994Z,1003.1
2023-04-16T07:23:14.234Z,1003.1
2023-04-16T07:24:30.473Z,1003.1
2023-04-16T07:25:46.727Z,1003.1
2023-04-16T07:27:02.966Z,1003.2
2023-04-16T07:28:18.226Z,1003.2
2023-04-16T07:29:34.468Z,1003.2
2023-04-16T07:30:50.693Z,1003.2
2023-04-16T07:32:06.929Z,1003.2
2023-04-16T07:33:23.173Z,1003.2
2023-04-16T07:34:39.414Z,1003.2
2023-04-16T07:35:55.642Z,1003.3
2023-04-16T07:37:10.925Z,1003.2
2023-04-16T07:38:26.187Z,1003.3
2023-04-16T07:39:41.420Z,1003.2
2023-04-16T07:40:56.695Z,1003.3
2023-04-16T07:42:12.932Z,1003.3
2023-04-16T07:43:29.189Z,1003.3
2023-04-16T07:44:45.416Z,1003.3
2023-04-16T07:46:01.669Z,1003.3
2023-04-16T07:47:17.891Z,1003.4
2023-04-16T07:48:34.138Z,1003.4
2023-04-16T07:49:50.384Z,1003.4
2023-04-16T07:51:06.619Z,1003.4
2023-04-16T07:52:22.874Z,1003.4
2023-04-16T07:53:39.099Z,1003.4
2023-04-16T07:54:55.335Z,1003.5
2023-04-16T07:56:11.585Z,1003.5
2023-04-16T07:57:26.827Z,1003.5
2023-04-16T07:58:43.077Z,1003.5
2023-04-16T07:59:59.320Z,1003.5
2023-04-16T08:01:15.557Z,1003.5
2023-04-16T08:02:31.801Z,1003.5
2023-04-16T08:03:48.000Z,1003.5
2023-04-16T08:05:04.279Z,1003.5
2023-04-16T08:06:19.540Z,1003.6
2023-04-16T08:07:34.798Z,1003.6
2023-04-16T08:08:51.034Z,1003.6
2023-04-16T08:10:06.289Z,1003.6
2023-04-16T08:11:21.546Z,1003.6
2023-04-16T08:13:54.023Z,1003.5
2023-04-16T08:15:10.261Z,1003.6
2023-04-16T08:16:26.516Z,1003.6
2023-04-16T08:17:42.740Z,1003.6
2023-04-16T08:18:58.997Z,1003.6
2023-04-16T08:20:15.225Z,1003.6
2023-04-16T08:21:31.480Z,1003.7
2023-04-16T08:22:47.720Z,1003.6
2023-04-16T08:24:03.946Z,1003.7
2023-04-16T08:25:20.198Z,1003.7
2023-04-16T08:26:36.426Z,1003.7
2023-04-16T08:27:51.686Z,1003.8
2023-04-16T08:29:07.919Z,1003.7
2023-04-16T08:30:24.160Z,1003.8
2023-04-16T08:31:40.401Z,1003.8
2023-04-16T08:32:56.658Z,1003.7
2023-04-16T08:34:12.895Z,1003.7
2023-04-16T08:35:29.131Z,1003.7
2023-04-16T08:36:45.367Z,1003.8
2023-04-16T08:38:00.625Z,1003.8
2023-04-16T08:39:15.879Z,1003.8
2023-04-16T08:40:32.126Z,1003.8
2023-04-16T08:41:47.379Z,1003.9
2023-04-16T08:43:02.646Z,1003.9
2023-04-16T08:44:18.876Z,1003.9
2023-04-16T08:45:35.120Z,1003.8
2023-04-16T08:46:51.352Z,1003.9
2023-04-16T08:48:07.608Z,1003.8
2023-04-16T08:49:23.838Z,1003.8
2023-04-16T08:50:40.074Z,1003.9
2023-04-16T08:51:56.313Z,1003.9
2023-04-16T08:53:12.555Z,1003.9
2023-04-16T08:54:28.800Z,1004
2023-04-16T08:55:45.031Z,1004
2023-04-16T08:57:01.278Z,1003.9
2023-04-16T08:58:17.526Z,1004
2023-04-16T08:59:32.776Z,1004
2023-04-16T09:00:49.015Z,1004
2023-04-16T09:02:05.259Z,1004
2023-04-16T09:03:21.484Z,1004.1
2023-04-16T09:04:37.741Z,1004
2023-04-16T09:05:53.978Z,1004.1
2023-04-16T09:07:10.211Z,1004
2023-04-16T09:08:25.464Z,1004.1
2023-04-16T09:09:40.724Z,1004.1
2023-04-16T09:10:55.985Z,1004.1
2023-04-16T09:12:11.246Z,1004.1
2023-04-16T09:13:27.475Z,1004.1
2023-04-16T09:14:43.719Z,1004.1
2023-04-16T09:15:59.964Z,1004.1
2023-04-16T09:17:16.203Z,1004.1
2023-04-16T09:18:32.449Z,1004.2
2023-04-16T09:19:48.675Z,1004.1
2023-04-16T09:21:04.920Z,1004.2
2023-04-16T09:22:21.174Z,1004.2
2023-04-16T09:23:37.404Z,1004.1
2023-04-16T09:24:53.638Z,1004.2
2023-04-16T09:26:09.880Z,1004.1
2023-04-16T09:27:26.121Z,1004.2
2023-04-16T09:28:41.381Z,1004.2
2023-04-16T09:29:57.612Z,1004.2
2023-04-16T09:31:13.863Z,1004.2
2023-04-16T09:32:30.090Z,1004.2
2023-04-16T09:33:46.342Z,1004.2
2023-04-16T09:35:02.578Z,1004.3
2023-04-16T09:36:18.810Z,1004.2
2023-04-16T09:37:34.076Z,1004.3
2023-04-16T09:38:49.326Z,1004.3
2023-04-16T09:40:05.573Z,1004.3
2023-04-16T09:41:21.821Z,1004.3
2023-04-16T09:42:38.048Z,1004.3
2023-04-16T09:43:54.289Z,1004.3
2023-04-16T09:45:10.545Z,1004.3
2023-04-16T09:46:26.778Z,1004.3
2023-04-16T09:47:43.016Z,1004.3
2023-04-16T09:48:59.257Z,1004.3
2023-04-16T09:50:15.500Z,1004.3
2023-04-16T09:51:31.742Z,1004.3
2023-04-16T09:52:47.968Z,1004.3
2023-04-16T09:54:04.221Z,1004.4
2023-04-16T09:55:19.465Z,1004.4
2023-04-16T09:56:35.706Z,1004.3
2023-04-16T09:57:51.954Z,1004.4
2023-04-16T09:59:08.188Z,1004.3
2023-04-16T10:00:24.422Z,1004.4
2023-04-16T10:01:40.684Z,1004.4
2023-04-16T10:02:56.000Z,1004.4
2023-04-16T10:04:12.163Z,1004.4
2023-04-16T10:05:27.429Z,1004.5
2023-04-16T10:06:43.664Z,1004.6
2023-04-16T10:07:59.901Z,1004.4
2023-04-16T10:09:16.149Z,1004.5
2023-04-16T10:10:32.395Z,1004.5
2023-04-16T10:11:48.631Z,1004.6
2023-04-16T10:13:04.863Z,1004.5
2023-04-16T10:14:21.104Z,1004.5
2023-04-16T10:15:37.341Z,1004.6
2023-04-16T10:16:53.588Z,1004.6
2023-04-16T10:18:09.827Z,1004.6
2023-04-16T10:19:26.064Z,1004.6
2023-04-16T10:20:42.304Z,1004.6
2023-04-16T10:21:57.563Z,1004.6
2023-04-16T10:23:13.792Z,1004.7
2023-04-16T10:24:30.040Z,1004.7
2023-04-16T10:25:46.271Z,1004.7
2023-04-16T10:27:02.521Z,1004.7
2023-04-16T10:28:18.762Z,1004.7
2023-04-16T10:29:34.995Z,1004.7
2023-04-16T10:30:50.262Z,1004.7
2023-04-16T10:32:05.511Z,1004.7
2023-04-16T10:33:20.771Z,1004.7
2023-04-16T10:34:36.042Z,1004.7
2023-04-16T10:35:51.288Z,1004.7
2023-04-16T10:37:06.554Z,1004.7
2023-04-16T10:38:22.791Z,1004.7
2023-04-16T10:39:39.035Z,1004.7
2023-04-16T10:40:55.264Z,1004.8
2023-04-16T10:42:11.515Z,1004.7
2023-04-16T10:43:27.763Z,1004.7
2023-04-16T10:44:43.992Z,1004.8
2023-04-16T10:46:00.223Z,1004.7
2023-04-16T10:47:16.468Z,1004.7
2023-04-16T10:48:32.704Z,1004.8
2023-04-16T10:49:48.960Z,1004.8
2023-04-16T10:51:05.181Z,1004.7
2023-04-16T10:52:21.426Z,1004.8
2023-04-16T10:53:36.679Z,1004.8
2023-04-16T10:54:52.924Z,1004.8
2023-04-16T10:56:09.168Z,1004.7
2023-04-16T10:57:24.430Z,1004.8
2023-04-16T10:58:40.681Z,1004.8
2023-04-16T10:59:56.909Z,1004.8
2023-04-16T11:01:13.142Z,1004.7
2023-04-16T11:02:28.411Z,1004.7
2023-04-16T11:03:43.655Z,1004.8
2023-04-16T11:04:59.908Z,1004.8
2023-04-16T11:06:16.139Z,1004.8
2023-04-16T11:07:32.381Z,1004.8
2023-04-16T11:08:48.630Z,1004.8
2023-04-16T11:10:04.870Z,1004.8
2023-04-16T11:11:21.107Z,1004.7
2023-04-16T11:12:37.343Z,1004.8
2023-04-16T11:13:53.582Z,1004.8
2023-04-16T11:15:09.815Z,1004.9
2023-04-16T11:16:26.071Z,1004.8
2023-04-16T11:17:42.303Z,1004.8
2023-04-16T11:18:58.546Z,1004.7
2023-04-16T11:20:13.794Z,1004.8
2023-04-16T11:21:30.041Z,1004.8
2023-04-16T11:22:46.278Z,1004.8
2023-04-16T11:24:02.519Z,1004.8
2023-04-16T11:25:18.753Z,1004.8
2023-04-16T11:26:35.000Z,1004.8
2023-04-16T11:27:51.245Z,1004.8
2023-04-16T11:29:06.498Z,1004.8
2023-04-16T11:30:21.754Z,1004.8
2023-04-16T11:31:37.017Z,1004.8
2023-04-16T11:32:52.276Z,1004.9
2023-04-16T11:34:08.507Z,1004.9
2023-04-16T11:35:23.778Z,1004.9
2023-04-16T11:36:39.023Z,1004.9
2023-04-16T11:37:55.281Z,1004.9
2023-04-16T11:39:11.501Z,1005
2023-04-16T11:40:27.750Z,1004.9
2023-04-16T11:41:43.991Z,1005
2023-04-16T11:43:00.240Z,1005
2023-04-16T11:44:16.480Z,1005
2023-04-16T11:45:32.705Z,1005
2023-04-16T11:46:48.965Z,1005
2023-04-16T11:48:05.195Z,1005
2023-04-16T11:49:21.432Z,1005
2023-04-16T11:50:37.675Z,1005
2023-04-16T11:51:53.911Z,1005
2023-04-16T11:53:09.183Z,1005.1
2023-04-16T11:54:25.408Z,1005.1
2023-04-16T11:55:41.642Z,1005.1
2023-04-16T11:56:57.889Z,1005.1
2023-04-16T11:58:14.142Z,1005
2023-04-16T11:59:30.368Z,1005.1
2023-04-16T12:00:46.615Z,1005.1
2023-04-16T12:02:01.868Z,1005.1
2023-04-16T12:03:17.126Z,1005.1
2023-04-16T12:04:33.373Z,1005.1
2023-04-16T12:05:48.617Z,1005.1
2023-04-16T12:07:03.882Z,1005.2
2023-04-16T12:08:20.122Z,1005.2
2023-04-16T12:09:36.364Z,1005.2
2023-04-16T12:10:52.593Z,1005.1
2023-04-16T12:12:08.843Z,1005.2
2023-04-16T12:13:25.085Z,1005.2
2023-04-16T12:14:41.318Z,1005.2
2023-04-16T12:15:57.571Z,1005.2
2023-04-16T12:17:13.794Z,1005.2
2023-04-16T12:18:30.030Z,1005.2
2023-04-16T12:19:46.284Z,1005.2
2023-04-16T12:21:02.518Z,1005.1
2023-04-16T12:22:18.754Z,1005.2
2023-04-16T12:23:34.008Z,1005.2
2023-04-16T12:24:50.264Z,1005.2
2023-04-16T12:26:06.488Z,1005.2
2023-04-16T12:27:22.738Z,1005.2
2023-04-16T12:28:38.979Z,1005.2
2023-04-16T12:29:55.213Z,1005.2
2023-04-16T12:31:11.452Z,1005.3
2023-04-16T12:32:26.731Z,1005.3
2023-04-16T12:33:41.963Z,1005.3
2023-04-16T12:34:58.222Z,1005.3
2023-04-16T12:36:13.482Z,1005.3
2023-04-16T12:37:28.729Z,1005.3
2023-04-16T12:38:44.965Z,1005.3
2023-04-16T12:40:01.203Z,1005.3
2023-04-16T12:41:17.449Z,1005.3
2023-04-16T12:42:33.688Z,1005.3
2023-04-16T12:43:49.934Z,1005.3
2023-04-16T12:45:06.166Z,1005.3
2023-04-16T12:46:22.413Z,1005.3
2023-04-16T12:47:38.656Z,1005.3
2023-04-16T12:48:54.890Z,1005.3
2023-04-16T12:50:11.121Z,1005.3
2023-04-16T12:51:27.360Z,1005.3
2023-04-16T12:52:43.605Z,1005.4
2023-04-16T12:53:58.866Z,1005.3
2023-04-16T12:55:15.107Z,1005.3
2023-04-16T12:56:31.338Z,1005.3
2023-04-16T12:57:47.576Z,1005.3
2023-04-16T12:59:03.833Z,1005.3
2023-04-16T13:00:20.064Z,1005.3
2023-04-16T13:01:36.309Z,1005.3
2023-04-16T13:02:51.569Z,1005.4
2023-04-16T13:04:06.821Z,1005.4
2023-04-16T13:05:23.063Z,1005.3
2023-04-16T13:06:39.312Z,1005.3
2023-04-16T13:07:54.568Z,1005.3
2023-04-16T13:09:09.815Z,1005.4
2023-04-16T13:10:26.057Z,1005.4
2023-04-16T13:11:42.306Z,1005.3
2023-04-16T13:12:58.546Z,1005.4
2023-04-16T13:14:14.771Z,1005.4
2023-04-16T13:15:31.012Z,1005.3
2023-04-16T13:16:47.269Z,1005.3
2023-04-16T13:18:03.500Z,1005.3
2023-04-16T13:19:19.739Z,1005.4
2023-04-16T13:20:35.970Z,1005.4
2023-04-16T13:21:52.214Z,1005.4
2023-04-16T13:23:08.452Z,1005.4
2023-04-16T13:24:24.691Z,1005.4
2023-04-16T13:25:39.955Z,1005.4
2023-04-16T13:26:56.191Z,1005.4
2023-04-16T13:28:12.426Z,1005.4
2023-04-16T13:29:28.684Z,1005.5
2023-04-16T13:30:44.910Z,1005.4
2023-04-16T13:32:01.153Z,1005.5
2023-04-16T13:33:17.384Z,1005.4
2023-04-16T13:34:32.663Z,1005.4
2023-04-16T13:35:47.907Z,1005.4
2023-04-16T13:37:03.175Z,1005.4
2023-04-16T13:38:18.429Z,1005.5
2023-04-16T13:39:34.661Z,1005.5
2023-04-16T13:40:50.914Z,1005.4
2023-04-16T13:42:07.142Z,1005.5
2023-04-16T13:43:23.379Z,1005.5
2023-04-16T13:44:39.619Z,1005.5
2023-04-16T13:45:55.874Z,1005.4
2023-04-16T13:47:12.106Z,1005.5
2023-04-16T13:48:28.358Z,1005.5
2023-04-16T13:49:44.582Z,1005.5
2023-04-16T13:51:00.831Z,1005.5
2023-04-16T13:52:17.075Z,1005.5
2023-04-16T13:53:33.311Z,1005.4
2023-04-16T13:54:48.575Z,1005.5
2023-04-16T13:56:04.800Z,1005.5
2023-04-16T13:57:21.037Z,1005.5
2023-04-16T13:58:37.302Z,1005.5
2023-04-16T13:59:53.531Z,1005.5
2023-04-16T14:01:09.771Z,1005.5
2023-04-16T14:02:25.996Z,1005.5
2023-04-16T14:03:41.256Z,1005.6
2023-04-16T14:04:56.541Z,1005.6
2023-04-16T14:06:12.751Z,1005.6
2023-04-16T14:07:28.015Z,1005.6
2023-04-16T14:08:43.276Z,1005.6
2023-04-16T14:09:59.520Z,1005.6
2023-04-16T14:11:15.773Z,1005.6
2023-04-16T14:12:31.991Z,1005.6
2023-04-16T14:13:48.245Z,1005.6
2023-04-16T14:15:04.471Z,1005.6
2023-04-16T14:16:20.717Z,1005.6
2023-04-16T14:17:36.952Z,1005.6
2023-04-16T14:18:53.200Z,1005.6
2023-04-16T14:20:09.436Z,1005.6
2023-04-16T14:21:25.687Z,1005.6
2023-04-16T14:22:41.921Z,1005.6
2023-04-16T14:23:58.172Z,1005.7
2023-04-16T14:26:29.658Z,1005.6
2023-04-16T14:27:45.902Z,1005.6
2023-04-16T14:29:02.134Z,1005.6
2023-04-16T14:30:18.382Z,1005.7
2023-04-16T14:31:34.633Z,1005.7
2023-04-16T14:32:50.847Z,1005.7
2023-04-16T14:34:07.094Z,1005.7
2023-04-16T14:35:22.358Z,1005.6
2023-04-16T14:36:37.624Z,1005.7
2023-04-16T14:37:52.861Z,1005.7
2023-04-16T14:39:08.135Z,1005.7
2023-04-16T14:40:24.361Z,1005.7
2023-04-16T14:41:40.610Z,1005.7
2023-04-16T14:42:56.849Z,1005.7
2023-04-16T14:44:13.080Z,1005.7
2023-04-16T14:45:29.341Z,1005.7
2023-04-16T14:46:45.573Z,1005.7
2023-04-16T14:48:01.798Z,1005.7
2023-04-16T14:49:18.068Z,1005.7
2023-04-16T14:50:34.289Z,1005.7
2023-04-16T14:51:50.527Z,1005.7
2023-04-16T14:53:06.764Z,1005.7
2023-04-16T14:54:23.001Z,1005.7
2023-04-16T14:55:38.265Z,1005.7
2023-04-16T14:56:54.512Z,1005.8
2023-04-16T14:58:10.748Z,1005.8
2023-04-16T14:59:26.986Z,1005.8
2023-04-16T15:00:43.217Z,1005.8
2023-04-16T15:01:59.461Z,1005.8
2023-04-16T15:03:15.706Z,1005.8
2023-04-16T15:04:30.981Z,1005.8
2023-04-16T15:05:46.237Z,1005.8
2023-04-16T15:07:02.474Z,1005.8
2023-04-16T15:08:18.702Z,1005.8
2023-04-16T15:09:34.930Z,1005.8
2023-04-16T15:10:51.171Z,1005.8
2023-04-16T15:12:06.434Z,1005.8
2023-04-16T15:13:22.673Z,1005.8
2023-04-16T15:14:38.915Z,1005.9
2023-04-16T15:15:55.168Z,1006
2023-04-16T15:17:11.404Z,1005.9
2023-04-16T15:18:27.651Z,1005.8
2023-04-16T15:19:43.871Z,1005.9
2023-04-16T15:21:00.130Z,1005.8
2023-04-16T15:22:16.359Z,1005.9
2023-04-16T15:23:32.604Z,1005.9
2023-04-16T15:24:48.834Z,1005.9
2023-04-16T15:26:05.077Z,1005.9
2023-04-16T15:27:21.341Z,1005.9
2023-04-16T15:28:36.586Z,1006
2023-04-16T15:29:52.814Z,1005.9
2023-04-16T15:31:08.092Z,1006
2023-04-16T15:32:24.323Z,1006
2023-04-16T15:33:39.583Z,1006
2023-04-16T15:34:54.847Z,1006
2023-04-16T15:36:10.099Z,1006
2023-04-16T15:37:25.357Z,1005.9
2023-04-16T15:38:41.607Z,1006
2023-04-16T15:39:57.844Z,1006
2023-04-16T15:41:14.078Z,1006
2023-04-16T15:42:30.331Z,1006
2023-04-16T15:43:46.544Z,1006
2023-04-16T15:45:02.804Z,1006
2023-04-16T15:46:19.052Z,1006
2023-04-16T15:47:35.276Z,1006
2023-04-16T15:48:51.507Z,1006
2023-04-16T15:50:07.746Z,1006
2023-04-16T15:51:23.985Z,1006
2023-04-16T15:52:40.253Z,1006
2023-04-16T15:53:55.500Z,1006
2023-04-16T15:55:11.733Z,1006
2023-04-16T15:56:27.977Z,1006
2023-04-16T15:57:44.205Z,1006
2023-04-16T15:59:00.442Z,1006.1
2023-04-16T16:00:16.685Z,1006.1
2023-04-16T16:01:32.938Z,1006.1
2023-04-16T16:02:48.199Z,1006.1